createdAt,value
2023-10-07T06:18:26.192Z,92.83
2023-10-07T06:19:26.123Z,92.93
2023-10-07T06:20:26.113Z,92.32
2023-10-07T06:21:26.103Z,92.42
2023-10-07T06:22:26.095Z,93.13
2023-10-07T06:23:26.296Z,92.72
2023-10-07T06:24:26.099Z,93.09
2023-10-07T06:25:26.055Z,92.63
2023-10-07T06:26:26.046Z,92.72
2023-10-07T06:27:26.037Z,93.24
2023-10-07T06:28:26.022Z,93.33
2023-10-07T06:29:26.010Z,92.68
2023-10-07T06:30:26.016Z,93.13
2023-10-07T06:31:26.072Z,92.79
2023-10-07T06:32:26.076Z,92.68
2023-10-07T06:33:25.966Z,92.28
2023-10-07T06:34:25.980Z,92.18
2023-10-07T06:35:25.947Z,92.38
2023-10-07T06:36:26.081Z,92.89
2023-10-07T06:37:25.920Z,92.68
2023-10-07T06:38:25.909Z,92.68
2023-10-07T06:39:25.897Z,92.68
2023-10-07T06:40:25.895Z,92.79
2023-10-07T06:41:25.885Z,91.93
2023-10-07T06:42:25.891Z,92.07
2023-10-07T06:43:25.850Z,91.73
2023-10-07T06:44:25.894Z,91.67
2023-10-07T06:45:25.829Z,91.73
2023-10-07T06:46:25.876Z,91.83
2023-10-07T06:47:25.828Z,91.87
2023-10-07T06:48:25.821Z,91.42
2023-10-07T06:49:25.839Z,91.02
2023-10-07T06:50:25.799Z,91.63
2023-10-07T06:51:25.760Z,91.42
2023-10-07T06:52:25.752Z,91.63
2023-10-07T06:53:25.754Z,91.02
2023-10-07T06:54:25.750Z,91.52
2023-10-07T06:55:25.726Z,91.52
2023-10-07T06:56:25.713Z,91.63
2023-10-07T06:57:25.695Z,91.63
2023-10-07T06:58:25.688Z,91.22
2023-10-07T06:59:25.669Z,91.63
2023-10-07T07:00:25.691Z,91.22
2023-10-07T07:01:25.657Z,91.32
2023-10-07T07:02:25.710Z,91.63
2023-10-07T07:03:25.677Z,91.52
2023-10-07T07:04:25.902Z,91.42
2023-10-07T07:05:25.604Z,91.73
2023-10-07T07:06:25.629Z,91.63
2023-10-07T07:07:25.574Z,91.93
2023-10-07T07:08:25.625Z,91.73
2023-10-07T07:09:25.549Z,91.78
2023-10-07T07:10:25.542Z,91.83
2023-10-07T07:11:25.530Z,91.48
2023-10-07T07:12:25.536Z,91.08
2023-10-07T07:13:25.519Z,91.28
2023-10-07T07:14:25.515Z,91.48
2023-10-07T07:15:25.481Z,91.38
2023-10-07T07:16:25.479Z,91.08
2023-10-07T07:17:25.616Z,91.13
2023-10-07T07:18:25.465Z,90.97
2023-10-07T07:19:25.433Z,91.03
2023-10-07T07:20:25.432Z,90.42
2023-10-07T07:21:25.411Z,90.73
2023-10-07T07:22:25.428Z,90.83
2023-10-07T07:23:25.397Z,90.83
2023-10-07T07:24:25.398Z,90.32
2023-10-07T07:25:25.399Z,90.53
2023-10-07T07:26:25.359Z,90.62
2023-10-07T07:27:25.344Z,90.48
2023-10-07T07:28:25.330Z,90.48
2023-10-07T07:29:25.367Z,90.48
2023-10-07T07:30:25.332Z,89.87
2023-10-07T07:31:25.371Z,89.67
2023-10-07T07:32:25.300Z,89.67
2023-10-07T07:33:25.272Z,89.77
2023-10-07T07:34:25.265Z,89.73
2023-10-07T07:35:25.249Z,89.02
2023-10-07T07:36:25.284Z,89.12
2023-10-07T07:37:25.226Z,89.63
2023-10-07T07:38:25.284Z,89.02
2023-10-07T07:39:25.207Z,88.92
2023-10-07T07:40:25.195Z,88.98
2023-10-07T07:41:25.187Z,88.68
2023-10-07T07:42:25.198Z,88.37
2023-10-07T07:43:25.165Z,88.37
2023-10-07T07:44:25.205Z,88.64
2023-10-07T07:45:25.153Z,88.43
2023-10-07T07:46:25.144Z,87.93
2023-10-07T07:47:25.242Z,88.23
2023-10-07T07:48:25.213Z,88.02
2023-10-07T07:49:25.095Z,88.02
2023-10-07T07:50:25.101Z,88.39
2023-10-07T07:51:25.075Z,88.13
2023-10-07T07:52:25.066Z,87.99
2023-10-07T07:53:25.055Z,87.68
2023-10-07T07:54:25.089Z,87.79
2023-10-07T07:55:26.189Z,87.68
2023-10-07T07:56:25.017Z,87.88
2023-10-07T07:57:25.007Z,87.79
2023-10-07T07:58:24.993Z,87.08
2023-10-07T07:59:25.034Z,87.68
2023-10-07T08:00:24.990Z,87.38
2023-10-07T08:01:24.954Z,87.99
2023-10-07T08:02:25.018Z,87.58
2023-10-07T08:03:25.021Z,87.79
2023-10-07T08:04:25.089Z,87.48
2023-10-07T08:05:24.984Z,88.19
2023-10-07T08:06:24.918Z,88.25
2023-10-07T08:07:24.893Z,87.79
2023-10-07T08:08:24.883Z,87.74
2023-10-07T08:09:24.864Z,87.64
2023-10-07T08:10:24.997Z,87.58
2023-10-07T08:11:24.845Z,87.38
2023-10-07T08:12:24.848Z,88.04
2023-10-07T08:13:24.834Z,87.95
2023-10-07T08:14:24.815Z,87.24
2023-10-07T08:15:24.845Z,87.54
2023-10-07T08:16:24.805Z,87.60
2023-10-07T08:17:24.833Z,87.24
2023-10-07T08:18:24.865Z,87.50
2023-10-07T08:19:24.753Z,87.50
2023-10-07T08:20:24.785Z,87.30
2023-10-07T08:21:24.729Z,87.10
2023-10-07T08:22:24.722Z,86.99
2023-10-07T08:23:24.704Z,86.99
2023-10-07T08:24:24.715Z,86.59
2023-10-07T08:25:24.685Z,86.45
2023-10-07T08:26:24.750Z,87.40
2023-10-07T08:27:24.659Z,86.99
2023-10-07T08:28:24.647Z,86.75
2023-10-07T08:29:24.646Z,86.95
2023-10-07T08:30:24.651Z,86.15
2023-10-07T08:31:24.637Z,86.35
2023-10-07T08:32:24.655Z,86.65
2023-10-07T08:33:24.608Z,85.84
2023-10-07T08:34:24.587Z,86.45
2023-10-07T08:35:24.622Z,86.21
2023-10-07T08:36:24.583Z,85.80
2023-10-07T08:37:24.543Z,85.60
2023-10-07T08:38:24.534Z,86.00
2023-10-07T08:39:24.520Z,86.41
2023-10-07T08:40:24.512Z,86.10
2023-10-07T08:41:24.493Z,86.61
2023-10-07T08:42:24.532Z,86.00
2023-10-07T08:43:24.477Z,86.21
2023-10-07T08:44:24.540Z,85.76
2023-10-07T08:45:24.494Z,86.36
2023-10-07T08:46:24.475Z,86.07
2023-10-07T08:47:24.673Z,85.31
2023-10-07T08:48:24.514Z,85.02
2023-10-07T08:49:24.407Z,85.31
2023-10-07T08:50:24.406Z,85.11
2023-10-07T08:51:24.394Z,85.31
2023-10-07T08:52:24.384Z,85.17
2023-10-07T08:53:24.379Z,84.67
2023-10-07T08:54:24.373Z,84.47
2023-10-07T08:55:24.344Z,84.03
2023-10-07T08:56:24.330Z,83.12
2023-10-07T08:57:24.316Z,83.79
2023-10-07T08:58:24.333Z,83.39
2023-10-07T08:59:24.296Z,83.54
2023-10-07T09:00:24.305Z,81.93
2023-10-07T09:01:24.307Z,82.50
2023-10-07T09:02:24.275Z,82.04
2023-10-07T09:03:24.324Z,81.90
2023-10-07T09:04:24.240Z,81.05
2023-10-07T09:05:24.284Z,81.19
2023-10-07T09:06:24.243Z,81.26
2023-10-07T09:07:24.201Z,80.85
2023-10-07T09:08:24.266Z,80.55
2023-10-07T09:09:24.181Z,81.15
2023-10-07T09:10:24.195Z,80.81
2023-10-07T09:11:24.189Z,80.21
2023-10-07T09:12:24.174Z,80.61
2023-10-07T09:13:24.135Z,79.30
2023-10-07T09:14:24.205Z,80.61
2023-10-07T09:15:24.114Z,80.41
2023-10-07T09:16:24.139Z,80.47
2023-10-07T09:17:24.167Z,80.11
2023-10-07T09:18:24.215Z,80.07
2023-10-07T09:19:24.069Z,79.87
2023-10-07T09:20:24.114Z,79.77
2023-10-07T09:21:24.054Z,79.27
2023-10-07T09:22:24.036Z,78.86
2023-10-07T09:23:24.063Z,79.06
2023-10-07T09:24:24.037Z,79.23
2023-10-07T09:25:24.008Z,79.53
2023-10-07T09:26:24.094Z,77.99
2023-10-07T09:27:23.977Z,78.05
2023-10-07T09:28:23.967Z,77.95
2023-10-07T09:29:23.988Z,77.05
2023-10-07T09:30:24.011Z,76.81
2023-10-07T09:31:23.983Z,76.37
2023-10-07T09:32:24.155Z,75.07
2023-10-07T09:33:23.911Z,74.73
2023-10-07T09:34:23.902Z,74.00
2023-10-07T09:35:23.974Z,73.90
2023-10-07T09:36:23.908Z,73.13
2023-10-07T09:37:23.862Z,73.03
2023-10-07T09:38:23.944Z,72.99
2023-10-07T09:39:23.840Z,71.59
2023-10-07T09:40:23.833Z,70.26
2023-10-07T09:41:23.862Z,70.56
2023-10-07T09:42:23.828Z,70.06
2023-10-07T09:43:23.803Z,70.12
2023-10-07T09:44:23.800Z,69.53
2023-10-07T09:45:23.780Z,70.12
2023-10-07T09:46:34.887Z,69.53
2023-10-07T09:47:24.859Z,68.89
2023-10-07T09:48:23.817Z,69.59
2023-10-07T09:49:23.729Z,68.96
2023-10-07T09:50:23.756Z,69.36
2023-10-07T09:51:23.709Z,68.46
2023-10-07T09:52:23.696Z,67.46
2023-10-07T09:53:23.737Z,67.73
2023-10-07T09:54:23.847Z,67.93
2023-10-07T09:55:23.665Z,67.23
2023-10-07T09:56:23.681Z,68.43
2023-10-07T09:57:23.680Z,67.33
2023-10-07T09:58:23.627Z,67.20
2023-10-07T09:59:23.655Z,67.27
2023-10-07T10:00:23.603Z,65.77
2023-10-07T10:01:23.644Z,65.97
2023-10-07T10:02:23.766Z,65.57
2023-10-07T10:03:23.797Z,65.41
2023-10-07T10:04:23.603Z,66.07
2023-10-07T10:05:23.652Z,66.30
2023-10-07T10:06:23.537Z,67.43
2023-10-07T10:07:23.525Z,66.53
2023-10-07T10:08:23.565Z,65.64
2023-10-07T10:09:23.503Z,64.51
2023-10-07T10:10:23.495Z,64.54
2023-10-07T10:11:23.528Z,64.87
2023-10-07T10:12:23.476Z,65.37
2023-10-07T10:13:23.455Z,65.77
2023-10-07T10:14:23.937Z,65.94
2023-10-07T10:15:23.436Z,65.94
2023-10-07T10:16:23.474Z,64.91
2023-10-07T10:17:23.538Z,65.48
2023-10-07T10:18:23.430Z,64.28
2023-10-07T10:19:23.393Z,63.85
2023-10-07T10:20:23.410Z,62.56
2023-10-07T10:21:23.367Z,61.54
2023-10-07T10:22:23.404Z,61.47
2023-10-07T10:23:23.411Z,62.16
2023-10-07T10:24:23.342Z,62.16
2023-10-07T10:25:23.324Z,61.57
2023-10-07T10:26:23.408Z,62.26
2023-10-07T10:27:23.321Z,61.96
2023-10-07T10:28:23.292Z,61.96
2023-10-07T10:29:23.327Z,62.37
2023-10-07T10:30:23.269Z,62.96
2023-10-07T10:31:23.284Z,61.37
2023-10-07T10:32:23.285Z,61.93
2023-10-07T10:33:23.263Z,62.23
2023-10-07T10:34:23.247Z,62.92
2023-10-07T10:35:23.290Z,63.72
2023-10-07T10:36:23.201Z,63.62
2023-10-07T10:37:23.195Z,62.52
2023-10-07T10:38:23.243Z,62.92
2023-10-07T10:39:37.185Z,63.19
2023-10-07T10:40:24.187Z,63.09
2023-10-07T10:41:23.199Z,62.86
2023-10-07T10:42:23.135Z,62.43
2023-10-07T10:43:23.124Z,61.64
2023-10-07T10:44:23.173Z,61.58
2023-10-07T10:45:23.123Z,61.48
2023-10-07T10:46:23.132Z,60.49
2023-10-07T10:47:23.139Z,60.19
2023-10-07T10:48:23.093Z,60.02
2023-10-07T10:49:23.068Z,60.69
2023-10-07T10:50:23.082Z,60.52
2023-10-07T10:51:23.034Z,60.52
2023-10-07T10:52:23.042Z,61.61
2023-10-07T10:53:23.041Z,61.98
2023-10-07T10:54:23.003Z,61.78
2023-10-07T10:55:22.992Z,61.45
2023-10-07T10:56:23.029Z,60.33
2023-10-07T10:57:22.968Z,59.04
2023-10-07T10:58:22.973Z,59.80
2023-10-07T10:59:23.000Z,58.42
2023-10-07T11:00:23.057Z,59.01
2023-10-07T11:01:22.959Z,59.11
2023-10-07T11:02:22.996Z,58.98
2023-10-07T11:03:23.370Z,58.95
2023-10-07T11:04:22.916Z,58.75
2023-10-07T11:05:23.073Z,58.63
2023-10-07T11:06:23.044Z,58.01
2023-10-07T11:07:22.888Z,58.11
2023-10-07T11:08:22.914Z,57.12
2023-10-07T11:09:22.835Z,57.78
2023-10-07T11:10:22.843Z,56.79
2023-10-07T11:11:22.856Z,56.57
2023-10-07T11:12:22.805Z,56.86
2023-10-07T11:13:22.790Z,56.27
2023-10-07T11:14:22.818Z,56.37
2023-10-07T11:15:22.771Z,56.46
2023-10-07T11:16:22.829Z,56.37
2023-10-07T11:17:22.808Z,56.96
2023-10-07T11:18:22.739Z,56.46
2023-10-07T11:19:22.726Z,56.46
2023-10-07T11:20:22.785Z,56.57
2023-10-07T11:21:22.864Z,56.37
2023-10-07T11:22:22.758Z,55.90
2023-10-07T11:23:24.666Z,56.79
2023-10-07T11:24:22.667Z,56.00
2023-10-07T11:25:22.661Z,56.07
2023-10-07T11:26:22.659Z,56.00
2023-10-07T11:27:22.636Z,57.06
2023-10-07T11:28:22.648Z,56.46
2023-10-07T11:29:22.656Z,56.07
2023-10-07T11:30:22.609Z,56.27
2023-10-07T11:31:22.611Z,56.37
2023-10-07T11:32:22.662Z,55.94
2023-10-07T11:33:22.707Z,55.94
2023-10-07T11:34:22.585Z,55.65
2023-10-07T11:35:22.647Z,56.04
2023-10-07T11:36:22.543Z,55.55
2023-10-07T11:37:22.528Z,54.96
2023-10-07T11:38:22.636Z,55.03
2023-10-07T11:39:22.505Z,54.93
2023-10-07T11:40:22.517Z,55.03
2023-10-07T11:41:23.486Z,54.63
2023-10-07T11:42:22.469Z,54.14
2023-10-07T11:43:22.460Z,53.75
2023-10-07T11:44:22.483Z,54.24
2023-10-07T11:45:22.441Z,54.76
2023-10-07T11:46:22.529Z,53.97
2023-10-07T11:47:22.479Z,54.14
2023-10-07T11:48:22.406Z,54.14
2023-10-07T11:49:22.393Z,53.38
2023-10-07T11:50:22.434Z,53.18
2023-10-07T11:51:22.371Z,53.47
2023-10-07T11:52:22.381Z,53.77
2023-10-07T11:53:22.368Z,54.27
2023-10-07T11:54:22.363Z,53.50
2023-10-07T11:55:22.330Z,53.89
2023-10-07T11:56:22.353Z,54.10
2023-10-07T11:57:22.304Z,54.69
2023-10-07T11:58:22.319Z,53.70
2023-10-07T11:59:22.320Z,53.99
2023-10-07T12:00:22.274Z,54.49
2023-10-07T12:01:22.298Z,54.19
2023-10-07T12:02:22.296Z,55.08
2023-10-07T12:03:22.357Z,53.99
2023-10-07T12:04:22.301Z,54.29
2023-10-07T12:05:22.286Z,54.46
2023-10-07T12:06:22.207Z,54.06
2023-10-07T12:07:22.206Z,53.97
2023-10-07T12:08:22.216Z,54.46
2023-10-07T12:09:22.173Z,53.64
2023-10-07T12:10:22.198Z,52.95
2023-10-07T12:11:22.185Z,53.18
2023-10-07T12:12:22.185Z,53.28
2023-10-07T12:13:23.310Z,53.08
2023-10-07T12:14:22.143Z,54.17
2023-10-07T12:15:22.126Z,54.04
2023-10-07T12:16:22.133Z,53.75
2023-10-07T12:17:22.133Z,54.21
2023-10-07T12:18:22.091Z,52.63
2023-10-07T12:19:22.063Z,52.83
2023-10-07T12:20:22.112Z,53.12
2023-10-07T12:21:22.056Z,53.30
2023-10-07T12:22:22.030Z,52.91
2023-10-07T12:23:22.074Z,52.31
2023-10-07T12:24:22.006Z,52.31
2023-10-07T12:25:22.003Z,51.84
2023-10-07T12:26:22.045Z,52.83
2023-10-07T12:27:21.992Z,51.97
2023-10-07T12:28:21.973Z,52.26
2023-10-07T12:29:21.991Z,52.36
2023-10-07T12:30:21.943Z,52.24
2023-10-07T12:31:21.960Z,52.83
2023-10-07T12:32:21.995Z,52.83
2023-10-07T12:33:35.111Z,53.12
2023-10-07T12:34:22.895Z,52.41
2023-10-07T12:35:21.934Z,52.21
2023-10-07T12:36:21.872Z,51.72
2023-10-07T12:37:21.878Z,51.54
2023-10-07T12:38:21.876Z,52.70
2023-10-07T12:39:21.847Z,52.61
2023-10-07T12:40:21.861Z,50.85
2023-10-07T12:41:21.855Z,51.94
2023-10-07T12:42:21.843Z,52.95
2023-10-07T12:43:21.802Z,52.95
2023-10-07T12:44:21.823Z,52.76
2023-10-07T12:45:21.782Z,52.86
2023-10-07T12:46:21.779Z,52.93
2023-10-07T12:47:21.783Z,51.54
2023-10-07T12:48:21.747Z,52.86
2023-10-07T12:49:21.736Z,53.12
2023-10-07T12:50:21.858Z,53.03
2023-10-07T12:51:21.711Z,52.63
2023-10-07T12:52:21.719Z,52.73
2023-10-07T12:53:21.735Z,53.00
2023-10-07T12:54:21.681Z,52.80
2023-10-07T12:55:21.665Z,51.79
2023-10-07T12:56:21.699Z,52.28
2023-10-07T12:57:21.664Z,51.79
2023-10-07T12:58:21.647Z,51.97
2023-10-07T12:59:21.651Z,50.98
2023-10-07T13:00:21.624Z,51.72
2023-10-07T13:01:21.781Z,52.41
2023-10-07T13:02:21.686Z,51.92
2023-10-07T13:03:21.706Z,52.04
2023-10-07T13:04:21.614Z,52.19
2023-10-07T13:05:21.602Z,52.98
2023-10-07T13:06:21.542Z,53.30
2023-10-07T13:07:21.548Z,53.87
2023-10-07T13:08:21.613Z,54.19
2023-10-07T13:09:21.591Z,54.39
2023-10-07T13:10:21.506Z,53.97
2023-10-07T13:11:21.531Z,54.17
2023-10-07T13:12:21.493Z,54.17
2023-10-07T13:13:21.471Z,54.96
2023-10-07T13:14:21.518Z,54.04
2023-10-07T13:15:21.447Z,53.45
2023-10-07T13:16:21.433Z,53.77
2023-10-07T13:17:22.069Z,53.50
2023-10-07T13:18:21.438Z,53.77
2023-10-07T13:19:21.421Z,55.05
2023-10-07T13:20:21.516Z,54.76
2023-10-07T13:21:21.406Z,54.66
2023-10-07T13:22:21.393Z,54.46
2023-10-07T13:23:21.406Z,54.36
2023-10-07T13:24:21.345Z,54.34
2023-10-07T13:25:21.410Z,52.95
2023-10-07T13:26:21.386Z,53.15
2023-10-07T13:27:21.328Z,53.25
2023-10-07T13:28:21.338Z,52.95
2023-10-07T13:29:21.362Z,52.86
2023-10-07T13:30:21.306Z,53.25
2023-10-07T13:31:21.312Z,52.56
2023-10-07T13:32:21.332Z,52.46
2023-10-07T13:33:21.318Z,52.76
2023-10-07T13:34:21.242Z,52.66
2023-10-07T13:35:21.300Z,52.44
2023-10-07T13:36:21.231Z,51.82
2023-10-07T13:37:21.206Z,51.35
2023-10-07T13:38:21.317Z,52.36
2023-10-07T13:39:21.242Z,53.08
2023-10-07T13:40:21.181Z,53.11
2023-10-07T13:41:21.204Z,53.89
2023-10-07T13:42:21.148Z,54.02
2023-10-07T13:43:21.244Z,54.54
2023-10-07T13:44:21.254Z,54.24
2023-10-07T13:45:21.161Z,54.24
2023-10-07T13:46:21.194Z,54.24
2023-10-07T13:47:21.306Z,54.35
2023-10-07T13:48:21.212Z,53.35
2023-10-07T13:49:21.071Z,53.82
2023-10-07T13:50:21.104Z,53.55
2023-10-07T13:51:21.053Z,53.72
2023-10-07T13:52:21.037Z,53.80
2023-10-07T13:53:21.101Z,53.63
2023-10-07T13:54:21.014Z,53.40
2023-10-07T13:55:21.021Z,54.02
2023-10-07T13:56:21.088Z,53.53
2023-10-07T13:57:21.156Z,54.10
2023-10-07T13:58:20.984Z,53.80
2023-10-07T13:59:21.072Z,53.70
2023-10-07T14:00:21.016Z,54.39
2023-10-07T14:01:21.010Z,53.60
2023-10-07T14:02:21.507Z,53.70
2023-10-07T14:03:21.245Z,52.91
2023-10-07T14:04:20.959Z,53.70
2023-10-07T14:05:20.952Z,54.22
2023-10-07T14:06:20.893Z,53.95
2023-10-07T14:07:20.892Z,55.13
2023-10-07T14:08:21.043Z,54.44
2023-10-07T14:09:20.923Z,54.35
2023-10-07T14:10:20.940Z,54.74
2023-10-07T14:11:20.927Z,54.84
2023-10-07T14:12:20.820Z,54.96
2023-10-07T14:13:20.841Z,54.84
2023-10-07T14:14:20.916Z,55.06
2023-10-07T14:15:20.827Z,55.46
2023-10-07T14:16:20.870Z,55.13
2023-10-07T14:17:20.888Z,55.76
2023-10-07T14:18:20.848Z,56.02
2023-10-07T14:19:20.741Z,55.06
2023-10-07T14:20:20.771Z,54.86
2023-10-07T14:21:20.717Z,55.76
2023-10-07T14:22:20.708Z,56.38
2023-10-07T14:23:20.815Z,56.18
2023-10-07T14:24:20.684Z,56.30
2023-10-07T14:25:20.683Z,56.51
2023-10-07T14:26:20.800Z,56.01
2023-10-07T14:27:20.650Z,56.21
2023-10-07T14:28:20.659Z,56.08
2023-10-07T14:29:20.695Z,56.18
2023-10-07T14:30:20.688Z,55.88
2023-10-07T14:31:20.754Z,55.88
2023-10-07T14:32:20.637Z,56.30
2023-10-07T14:33:20.651Z,55.91
2023-10-07T14:34:20.606Z,56.21
2023-10-07T14:35:20.611Z,55.51
2023-10-07T14:36:20.548Z,56.21
2023-10-07T14:37:20.544Z,56.11
2023-10-07T14:38:20.564Z,56.83
2023-10-07T14:39:26.654Z,56.16
2023-10-07T14:40:21.551Z,55.96
2023-10-07T14:41:20.605Z,56.38
2023-10-07T14:42:20.490Z,56.49
2023-10-07T14:43:20.515Z,56.09
2023-10-07T14:44:20.479Z,56.21
2023-10-07T14:45:20.482Z,56.51
2023-10-07T14:46:20.459Z,56.02
2023-10-07T14:47:20.442Z,56.61
2023-10-07T14:48:20.534Z,56.74
2023-10-07T14:49:20.416Z,57.04
2023-10-07T14:50:20.482Z,57.17
2023-10-07T14:51:20.394Z,56.96
2023-10-07T14:52:20.376Z,57.36
2023-10-07T14:53:20.400Z,56.87
2023-10-07T14:54:20.356Z,57.26
2023-10-07T14:55:20.343Z,56.87
2023-10-07T14:56:20.340Z,56.89
2023-10-07T14:57:20.344Z,57.19
2023-10-07T14:58:20.331Z,57.59
2023-10-07T14:59:20.352Z,57.29
2023-10-07T15:00:20.284Z,58.78
2023-10-07T15:01:20.344Z,58.28
2023-10-07T15:02:20.373Z,58.98
2023-10-07T15:03:20.428Z,58.06
2023-10-07T15:04:20.328Z,58.69
2023-10-07T15:05:20.257Z,58.78
2023-10-07T15:06:20.262Z,59.38
2023-10-07T15:07:20.203Z,58.88
2023-10-07T15:08:20.356Z,59.18
2023-10-07T15:09:20.241Z,59.58
2023-10-07T15:10:20.173Z,59.68
2023-10-07T15:11:20.192Z,59.11
2023-10-07T15:12:20.155Z,59.51
2023-10-07T15:13:20.163Z,58.71
2023-10-07T15:14:20.206Z,59.11
2023-10-07T15:15:20.117Z,59.41
2023-10-07T15:16:20.141Z,59.21
2023-10-07T15:17:20.192Z,59.41
2023-10-07T15:18:20.133Z,58.64
2023-10-07T15:19:20.070Z,58.91
2023-10-07T15:20:20.110Z,59.23
2023-10-07T15:21:20.049Z,59.34
2023-10-07T15:22:20.063Z,59.44
2023-10-07T15:23:20.075Z,59.04
2023-10-07T15:24:20.016Z,60.03
2023-10-07T15:25:20.004Z,59.83
2023-10-07T15:26:20.141Z,59.94
2023-10-07T15:27:19.987Z,59.86
2023-10-07T15:28:19.989Z,59.74
2023-10-07T15:29:20.026Z,60.13
2023-10-07T15:30:19.949Z,60.16
2023-10-07T15:31:19.953Z,60.46
2023-10-07T15:32:19.942Z,60.46
2023-10-07T15:33:19.979Z,60.36
2023-10-07T15:34:19.906Z,60.56
2023-10-07T15:35:19.926Z,60.56
2023-10-07T15:36:19.886Z,60.86
2023-10-07T15:37:19.870Z,60.46
2023-10-07T15:38:19.947Z,60.86
2023-10-07T15:39:19.861Z,60.96
2023-10-07T15:40:19.851Z,60.36
2023-10-07T15:41:19.907Z,60.46
2023-10-07T15:42:19.818Z,59.66
2023-10-07T15:43:19.822Z,60.16
2023-10-07T15:44:19.835Z,60.09
2023-10-07T15:45:19.781Z,60.06
2023-10-07T15:46:19.836Z,60.46
2023-10-07T15:47:19.841Z,60.46
2023-10-07T15:48:19.771Z,60.26
2023-10-07T15:49:19.768Z,60.49
2023-10-07T15:50:19.796Z,60.49
2023-10-07T15:51:19.717Z,60.49
2023-10-07T15:52:19.705Z,60.89
2023-10-07T15:53:19.745Z,60.69
2023-10-07T15:54:19.743Z,60.59
2023-10-07T15:55:19.670Z,60.49
2023-10-07T15:56:19.901Z,60.92
2023-10-07T15:57:19.665Z,60.92
2023-10-07T15:58:19.637Z,61.02
2023-10-07T15:59:19.721Z,61.41
2023-10-07T16:00:19.704Z,61.52
2023-10-07T16:01:19.697Z,61.61
2023-10-07T16:02:19.704Z,61.91
2023-10-07T16:03:19.709Z,61.82
2023-10-07T16:04:19.713Z,61.32
2023-10-07T16:05:19.683Z,61.61
2023-10-07T16:06:19.553Z,61.61
2023-10-07T16:07:19.541Z,61.82
2023-10-07T16:08:19.567Z,61.52
2023-10-07T16:09:19.536Z,61.32
2023-10-07T16:10:19.534Z,61.32
2023-10-07T16:11:19.584Z,61.32
2023-10-07T16:12:19.479Z,61.61
2023-10-07T16:13:19.468Z,61.52
2023-10-07T16:14:19.524Z,61.52
2023-10-07T16:15:19.454Z,61.52
2023-10-07T16:16:19.460Z,61.61
2023-10-07T16:17:19.461Z,61.71
2023-10-07T16:18:19.462Z,61.71
2023-10-07T16:19:19.482Z,62.01
2023-10-07T16:20:19.609Z,61.71
2023-10-07T16:21:19.603Z,62.21
2023-10-07T16:22:19.371Z,62.41
2023-10-07T16:23:19.468Z,62.51
2023-10-07T16:24:19.377Z,62.41
2023-10-07T16:25:19.335Z,62.84
2023-10-07T16:26:19.376Z,62.45
2023-10-07T16:27:19.317Z,62.54
2023-10-07T16:28:19.308Z,63.24
2023-10-07T16:29:19.352Z,62.84
2023-10-07T16:30:19.297Z,62.45
2023-10-07T16:31:19.311Z,62.48
2023-10-07T16:32:19.284Z,62.54
2023-10-07T16:33:19.258Z,62.54
2023-10-07T16:34:19.251Z,62.67
2023-10-07T16:35:19.249Z,62.97
2023-10-07T16:36:19.219Z,63.37
2023-10-07T16:37:19.198Z,62.97
2023-10-07T16:38:19.258Z,63.37
2023-10-07T16:39:19.214Z,63.57
2023-10-07T16:40:19.164Z,63.60
2023-10-07T16:41:19.182Z,63.17
2023-10-07T16:42:19.190Z,63.27
2023-10-07T16:43:19.189Z,63.90
2023-10-07T16:44:19.232Z,63.90
2023-10-07T16:45:19.223Z,63.90
2023-10-07T16:46:19.138Z,63.90
2023-10-07T16:47:19.134Z,64.00
2023-10-07T16:48:19.094Z,64.10
2023-10-07T16:49:19.090Z,64.70
2023-10-07T16:50:19.062Z,63.60
2023-10-07T16:51:19.042Z,63.90
2023-10-07T16:52:19.033Z,64.33
2023-10-07T16:53:19.078Z,64.23
2023-10-07T16:54:19.045Z,64.43
2023-10-07T16:55:19.017Z,64.33
2023-10-07T16:56:19.021Z,64.73
2023-10-07T16:57:19.698Z,65.13
2023-10-07T16:58:18.991Z,64.93
2023-10-07T16:59:18.998Z,65.03
2023-10-07T17:00:18.954Z,65.03
2023-10-07T17:01:18.990Z,64.83
2023-10-07T17:02:18.954Z,64.93
2023-10-07T17:03:18.978Z,65.23
2023-10-07T17:04:19.038Z,65.33
2023-10-07T17:05:18.904Z,65.23
2023-10-07T17:06:18.900Z,65.53
2023-10-07T17:07:18.860Z,65.63
2023-10-07T17:08:18.865Z,65.46
2023-10-07T17:09:18.859Z,65.36
2023-10-07T17:10:18.829Z,65.66
2023-10-07T17:11:19.088Z,65.16
2023-10-07T17:12:18.803Z,65.96
2023-10-07T17:13:18.797Z,66.06
2023-10-07T17:14:18.843Z,65.09
2023-10-07T17:15:18.768Z,65.49
2023-10-07T17:16:18.843Z,65.19
2023-10-07T17:17:18.910Z,65.99
2023-10-07T17:18:18.756Z,65.99
2023-10-07T17:19:18.732Z,65.96
2023-10-07T17:20:18.741Z,66.09
2023-10-07T17:21:18.695Z,65.99
2023-10-07T17:22:18.698Z,65.99
2023-10-07T17:23:18.716Z,66.32
2023-10-07T17:24:18.676Z,66.09
2023-10-07T17:25:18.649Z,66.29
2023-10-07T17:26:18.680Z,66.09
2023-10-07T17:27:18.646Z,66.52
2023-10-07T17:28:18.685Z,66.22
2023-10-07T17:29:18.650Z,66.49
2023-10-07T17:30:18.626Z,67.09
2023-10-07T17:31:18.638Z,66.89
2023-10-07T17:32:18.602Z,67.59
2023-10-07T17:33:18.571Z,67.63
2023-10-07T17:34:18.577Z,67.82
2023-10-07T17:35:18.601Z,67.72
2023-10-07T17:36:18.530Z,67.13
2023-10-07T17:37:18.521Z,67.43
2023-10-07T17:38:18.573Z,67.52
2023-10-07T17:39:18.509Z,67.63
2023-10-07T17:40:18.484Z,67.32
2023-10-07T17:41:18.577Z,67.25
2023-10-07T17:42:18.476Z,67.36
2023-10-07T17:43:18.451Z,67.25
2023-10-07T17:44:18.473Z,67.46
2023-10-07T17:45:18.424Z,67.36
2023-10-07T17:46:18.458Z,67.36
2023-10-07T17:47:18.435Z,67.55
2023-10-07T17:48:18.476Z,68.36
2023-10-07T17:49:18.405Z,67.76
2023-10-07T17:50:18.441Z,67.86
2023-10-07T17:51:18.353Z,67.86
2023-10-07T17:52:18.350Z,68.26
2023-10-07T17:53:18.436Z,68.46
2023-10-07T17:54:18.339Z,68.05
2023-10-07T17:55:18.312Z,68.55
2023-10-07T17:56:18.319Z,68.76
2023-10-07T17:57:18.288Z,68.49
2023-10-07T17:58:18.277Z,68.99
2023-10-07T17:59:18.355Z,68.39
2023-10-07T18:00:18.262Z,69.09
2023-10-07T18:01:18.257Z,68.89
2023-10-07T18:02:18.372Z,68.16
2023-10-07T18:03:18.411Z,68.59
2023-10-07T18:04:18.224Z,68.69
2023-10-07T18:05:18.258Z,68.99
2023-10-07T18:06:18.185Z,68.99
2023-10-07T18:07:18.172Z,69.49
2023-10-07T18:08:18.191Z,69.29
2023-10-07T18:09:18.157Z,68.49
2023-10-07T18:10:18.151Z,68.99
2023-10-07T18:11:18.178Z,69.62
2023-10-07T18:12:18.123Z,69.23
2023-10-07T18:13:18.100Z,68.73
2023-10-07T18:14:18.123Z,68.52
2023-10-07T18:15:18.090Z,68.92
2023-10-07T18:16:18.089Z,69.23
2023-10-07T18:17:18.085Z,69.02
2023-10-07T18:18:18.105Z,69.12
2023-10-07T18:19:18.350Z,69.12
2023-10-07T18:20:18.196Z,69.12
2023-10-07T18:21:18.015Z,69.12
2023-10-07T18:22:18.000Z,69.42
2023-10-07T18:23:18.034Z,69.23
2023-10-07T18:24:17.978Z,69.32
2023-10-07T18:25:17.980Z,69.62
2023-10-07T18:26:18.048Z,69.82
2023-10-07T18:27:17.944Z,69.82
2023-10-07T18:28:17.937Z,70.03
2023-10-07T18:29:17.998Z,70.06
2023-10-07T18:30:18.037Z,69.73
2023-10-07T18:31:17.969Z,70.06
2023-10-07T18:32:17.937Z,70.12
2023-10-07T18:33:17.896Z,69.23
2023-10-07T18:34:17.896Z,70.36
2023-10-07T18:35:17.898Z,69.35
2023-10-07T18:36:17.847Z,70.46
2023-10-07T18:37:17.833Z,70.66
2023-10-07T18:38:17.833Z,70.46
2023-10-07T18:39:17.814Z,70.36
2023-10-07T18:40:20.289Z,70.86
2023-10-07T18:41:17.822Z,70.66
2023-10-07T18:42:17.780Z,70.76
2023-10-07T18:43:17.764Z,70.96
2023-10-07T18:44:18.146Z,71.36
2023-10-07T18:45:17.761Z,71.77
2023-10-07T18:46:17.753Z,71.66
2023-10-07T18:47:17.843Z,71.90
2023-10-07T18:48:17.754Z,71.90
2023-10-07T18:49:17.697Z,71.50
2023-10-07T18:50:17.915Z,71.70
2023-10-07T18:51:17.675Z,72.00
2023-10-07T18:52:17.666Z,71.50
2023-10-07T18:53:17.732Z,72.60
2023-10-07T18:54:17.644Z,71.23
2023-10-07T18:55:17.658Z,71.39
2023-10-07T18:56:17.647Z,71.70
2023-10-07T18:57:17.613Z,72.03
2023-10-07T18:58:17.601Z,72.94
2023-10-07T18:59:17.609Z,72.83
2023-10-07T19:00:17.593Z,72.33
2023-10-07T19:01:17.585Z,72.94
2023-10-07T19:02:17.583Z,72.74
2023-10-07T19:03:17.670Z,72.83
2023-10-07T19:04:17.562Z,72.94
2023-10-07T19:05:17.675Z,72.24
2023-10-07T19:06:17.530Z,72.53
2023-10-07T19:07:17.499Z,72.33
2023-10-07T19:08:17.518Z,72.83
2023-10-07T19:09:17.481Z,72.33
2023-10-07T19:10:17.487Z,72.24